TOURFACTS.DK  
Stats and Facts from Tour de France.

Tour de France 2019 starts in 354 days
  Riders   Stages   Teams   Summits   Yearly  


 
Search by year

After 2018 - Stage 9:
 15000 starters.
  5163 different riders.
  639 teams.
  2241 stages.
  456 restdays.
  441138.60 km.
  5662 abandonnees.


Top 3
GC
Christopher Froome86:20:55
Rigoberto Urán86:21:49
Romain Bardet86:23:15
Climb
Warren Barguil169 pt.
Primoz Roglic80 pt.
Thomas De Gendt64 pt.
Sprint
Michael Matthews359 pt.
André Greipel234 pt.
Edvald Boasson Hagen220 pt.
Youth
Simon Yates86:27:09
Louis Meintjes86:29:15
Emanuel Buchmann86:54:16
Facts from Tour de France 1950
  |   Stages.  |   Stage winners.  |   Days in yellow  |   Average speed.  |   Route.  |   Teams.  |   All riders.  |   Rookies.  |  

  |   Withdrawls.  |   GC.  |   Polka  |   Green  |   White  |   Summits. (In tour)  |   Miscellaneous.  |  

Stage 4 on July 16th. 1950
         Owning:    Bernard Gauthier    
Pick a stage:  1 2 3 4 5 6 7 8 9 10 11 12 13 14 15 16 17 18 19 20 21 22
  LilleRouen | Dist: 231.00 km.

Average speed for all riders in stage:  31,573 km./hr.
    Place:Name:Team:Time:Km/h:
BELStan OckersBELBelgium07:12:26  +  00:00:00=32,051 
FRAAntonin RollandFRASouth-East07:12:34  +  00:00:08=32,041 
BELMaurice BlommeBELBelgium07:12:34  +  00:00:08=32,041 
4 LUXJean GoldschmitLUXLuxembourg07:12:34  +  00:00:08=32,041 
5 FRAJacques MarinelliFRAFrance07:12:34  +  00:00:08=32,041 
6 FRABernard GauthierFRASouth-East07:12:34  +  00:00:08=32,041 
7 BELAlbert DubuissonBELAiglons Belges07:12:44  +  00:00:18=32,029 
8 FRAJean RobicFRAWest07:12:46  +  00:00:20=32,026 
9 FRADaniel ThuayreFRAIle De France-North East07:12:46  +  00:00:20=32,026 
10 FRASerge BlussonFRAParis07:12:46  +  00:00:20=32,026 
11 ITAAttilio RedolfiFRAIle De France-North East07:12:46  +  00:00:20=32,026 
12 ITAGino SciardisFRAWest07:12:46  +  00:00:20=32,026 
13 SUIFerdi KüblerCHESwitzerland07:12:46  +  00:00:20=32,026 
14 BELBriek SchotteBELBelgium07:12:46  +  00:00:20=32,026 
15 FRAMarius BonnetFRASouth-East07:12:46  +  00:00:20=32,026 
16 ITAGino BartaliITAItaly07:12:46  +  00:00:20=32,026 
17 FRADominique ForliniFRAParis07:12:46  +  00:00:20=32,026 
18 BELJan StormsBELAiglons Belges07:12:46  +  00:00:20=32,026 
19 FRARaphaël GeminianiFRAFrance07:12:46  +  00:00:20=32,026 
20 BELMarcel VerschuerenBELAiglons Belges07:12:46  +  00:00:20=32,026 
21 FRAGilbert BauvinFRAIle De France-North East07:12:46  +  00:00:20=32,026 
22 FRAMaurice QuentinFRAParis07:12:46  +  00:00:20=32,026 
23 FRARaoul RemyFRASouth-East07:12:46  +  00:00:20=32,026 
24 FRARobert DorgebrayFRAParis07:12:46  +  00:00:20=32,026 
25 FRARobert ChapatteFRAParis07:12:46  +  00:00:20=32,026 
26 FRAEmile RolFRASouth-East07:12:46  +  00:00:20=32,026 
27 FRANoel LajoieFRACenter-South West07:12:46  +  00:00:20=32,026 
28 MARCustodio Dos ReisNAFNorth Africa07:12:46  +  00:00:20=32,026 
29 FRAJosé BeyaertFRAParis07:12:46  +  00:00:20=32,026 
30 FRAJean BaldassariFRAParis07:12:46  +  00:00:20=32,026 
31 NEDWim De RuyterNLDHolland07:12:46  +  00:00:20=32,026 
32 BELMarcel De MulderBELAiglons Belges07:12:46  +  00:00:20=32,026 
33 FRAMaurice De MuerFRAIle De France-North East07:12:46  +  00:00:20=32,026 
34 FRAKléber PiotFRAIle De France-North East07:12:46  +  00:00:20=32,026 
35 FRARoger QueugnetFRAIle De France-North East07:12:46  +  00:00:20=32,026 
36 FRAArmand DarnauguilhemFRACenter-South West07:12:46  +  00:00:20=32,026 
37 FRAPierre CoganFRACenter-South West07:12:46  +  00:00:20=32,026 
38 FRAGeorges MeunierFRACenter-South West07:12:46  +  00:00:20=32,026 
39 FRAAlain MoineauFRACenter-South West07:12:46  +  00:00:20=32,026 
40 FRARoger PontetFRAWest07:12:46  +  00:00:20=32,026 
41 FRAAndre MahéFRAWest07:12:46  +  00:00:20=32,026 
42 FRAPaul PineauFRACenter-South West07:12:46  +  00:00:20=32,026 
43 FRAHervé ProuzetFRACenter-South West07:12:46  +  00:00:20=32,026 
44 FRARoger ChupinFRAWest07:12:46  +  00:00:20=32,026 
45 SUIPierre BrambillaFRASouth-East07:12:46  +  00:00:20=32,026 
46 FRARobert BonnaventureFRAWest07:12:46  +  00:00:20=32,026 
47 FRARobert CastelinFRASouth-East07:12:46  +  00:00:20=32,026 
48 FRAMaurice KallertFRASouth-East07:12:46  +  00:00:20=32,026 
49 FRARoger CretonFRAWest07:12:46  +  00:00:20=32,026 
50 ITAAdolfo LeoniITACadetti Italiens07:12:46  +  00:00:20=32,026 
51 FRAPierre MolinerisFRAFrance07:12:46  +  00:00:20=32,026 
52 NEDHenk de HoogNLDHolland07:12:46  +  00:00:20=32,026 
53 LUXJean KirchenLUXLuxembourg07:12:46  +  00:00:20=32,026 
54 LUXWilly KempLUXLuxembourg07:12:46  +  00:00:20=32,026 
55 FRALouison BobetFRAFrance07:12:46  +  00:00:20=32,026 
56 SUIGottfried WeilenmannCHESwitzerland07:12:46  +  00:00:20=32,026 
57 LUXMarcel ErnzerLUXLuxembourg07:12:46  +  00:00:20=32,026 
58 BELRaymond ImpanisBELBelgium07:12:46  +  00:00:20=32,026 
59 BELEduard Van EndeBELBelgium07:12:46  +  00:00:20=32,026 
60 SUIMartin MetzgerCHESwitzerland07:12:46  +  00:00:20=32,026 
61 FRAPaul GiguetFRAFrance07:12:46  +  00:00:20=32,026 
62 ITANello LaurediFRAFrance07:12:46  +  00:00:20=32,026 
63 ITAGiulio BresciITACadetti Italiens07:12:46  +  00:00:20=32,026 
64 FRALouis DeprezFRAFrance07:12:46  +  00:00:20=32,026 
65 ITASerifano BiagioniITAItaly07:12:46  +  00:00:20=32,026 
66 FRAJean-Apotre LazaridesFRAFrance07:12:46  +  00:00:20=32,026 
67 ITAVittorio MagniITAItaly07:12:46  +  00:00:20=32,026 
68 BELRoger LambrechtBELBelgium07:12:46  +  00:00:20=32,026 
69 BELHilaire CouvreurBELBelgium07:13:10  +  00:00:44=31,997 
70 ALGAhmed KebaïliNAFNorth Africa07:13:15  +  00:00:49=31,991 
71 ITAGiuseppe TaccaFRAIle De France-North East07:13:15  +  00:00:49=31,991 
72 BELMarcel DupontBELBelgium07:13:15  +  00:00:49=31,991 
73 BELLeopold De RijckeBELAiglons Belges07:13:15  +  00:00:49=31,991 
74 BELArmand BaeyensBELAiglons Belges07:13:15  +  00:00:49=31,991 
75 FRAJean-Marie GoasmatFRAWest07:13:15  +  00:00:49=31,991 
76 LUXJean DiederichLUXLuxembourg07:14:30  +  00:02:04=31,899 
77 ITASylvio PedroniITAItaly07:15:33  +  00:03:07=31,822 
78 BELMarcel HendrickxBELBelgium07:16:09  +  00:03:43=31,778 
79 SUIGeorges AeschlimannCHESwitzerland07:16:09  +  00:03:43=31,778 
80 LUXHenri KellenLUXLuxembourg07:16:24  +  00:03:58=31,760 
81 ITAAlfredo PasottiITACadetti Italiens07:20:31  +  00:08:05=31,463 
82 ITAAlberto GhirardiITACadetti Italiens07:20:31  +  00:08:05=31,463 
83 FRAAndré BruléFRAIle De France-North East07:20:31  +  00:08:05=31,463 
84 FRAMarcel DussaultFRACenter-South West07:20:31  +  00:08:05=31,463 
85 FRARobert DesbatsFRAFrance07:20:31  +  00:08:05=31,463 
86 FRAAntonin CanaveseFRASouth-East07:21:52  +  00:09:26=31,367 
87 FRABasile DecortèsFRAWest07:26:10  +  00:13:44=31,065 
88 ITAGaliano PividoriFRAIle De France-North East07:26:10  +  00:13:44=31,065 
89 ITARemo SabattiniITACadetti Italiens07:26:10  +  00:13:44=31,065 
90 ITAAngelo BrignoleITAItaly07:26:10  +  00:13:44=31,065 
91 FRAEmile BaffertFRAFrance07:26:10  +  00:13:44=31,065 
92 FRARené BertonFRACenter-South West07:26:10  +  00:13:44=31,065 
93 ITAValerio BoniniITACadetti Italiens07:26:10  +  00:13:44=31,065 
94 BELJoseph VerhaertBELBelgium07:26:10  +  00:13:44=31,065 
95 MEXAttilio LambertiniITAItaly07:26:10  +  00:13:44=31,065 
96 ITAVirgilio SalimbeniITAItaly07:26:10  +  00:13:44=31,065 
97 FRALucien LaukFRAParis07:30:04  +  00:17:38=30,795 
98 SUIEmilio Croci TortiCHESwitzerland07:31:57  +  00:19:31=30,667 
99 FRAArmand AudaireFRAWest07:31:57  +  00:19:31=30,667 
100 ALGMarcel MolinesNAFNorth Africa07:32:20  +  00:19:54=30,641 
101 NEDFrans VosNLDHolland07:33:02  +  00:20:36=30,594 
102 POLAntoine FrankowskiFRAParis07:39:53  +  00:27:27=30,138 
103 FRAJacques RenaudFRAParis07:39:53  +  00:27:27=30,138 
104 ITAGiovanni CorrieriITAItaly07:41:57  +  00:29:31=30,003 
105 ITALuciano PezziITAItaly07:41:57  +  00:29:31=30,003 
106 SUIFritz ZbindenCHESwitzerland07:43:53  +  00:31:27=29,878 
107 NEDGerrit VoortingNLDHolland07:55:43  +  00:43:17=29,135 
108 MARMax CharroinNAFNorth Africa07:55:53  +  00:43:27=29,125 
109 ITANello SforacchiFRAIle De France-North East07:55:53  +  00:43:27=29,125 
110 NEDWout WagtmansNLDHolland07:55:53  +  00:43:27=29,125 
111 ALGMarcel ZelascoNAFNorth Africa07:55:53  +  00:43:27=29,125 
112 NEDJoseph JanssenNLDHolland07:55:53  +  00:43:27=29,125 

Withdrawls: 2
 
Rider
Team
Reason
95  ESPBernard FernandezFRACenter-South WestDid not finish
107  ITAPaul NeriFRASouth-EastDid not finish

Todays birthdays.

1876  Frédéric Rigaux
1896  Federico Gay
1901  Paul Delbart
1944  Jean-Pierre Ducasse
1948  Marc Lievens
1961  Willem Wijnant
1964  Miguel Indurain
1965  Gianni Faresin
1973  Stefano Garzelli
1982  André Greipel
1984  Alan Marangoni




Visits: